createdAt,value
2022-12-23T00:00:45.162Z,99971.38
2022-12-23T00:03:12.804Z,99974.97
2022-12-23T00:05:40.720Z,99977.75
2022-12-23T00:08:08.316Z,99963.91
2022-12-23T00:10:40.102Z,99970.47
2022-12-23T00:13:28.371Z,99963.41
2022-12-23T00:16:10.919Z,99963.22
2022-12-23T00:18:38.834Z,99962.19
2022-12-23T00:21:11.591Z,99956.81
2022-12-23T00:23:41.303Z,99958.91
2022-12-23T00:26:15.245Z,99953.38
2022-12-23T00:28:42.905Z,99947.00
2022-12-23T00:31:11.200Z,99950.59
2022-12-23T00:33:43.921Z,99953.38
2022-12-23T00:36:12.627Z,99948.22
2022-12-23T00:38:58.894Z,99943.19
2022-12-23T00:41:44.938Z,99927.41
2022-12-23T00:44:13.174Z,99939.38
2022-12-23T00:46:40.857Z,99931.22
2022-12-23T00:49:27.112Z,99933.66
2022-12-23T00:51:54.485Z,99950.06
2022-12-23T00:54:21.905Z,99943.31
2022-12-23T00:56:49.286Z,99933.09
2022-12-23T00:59:16.708Z,99922.72
2022-12-23T01:02:02.851Z,99923.38
2022-12-23T01:04:49.094Z,99917.00
2022-12-23T01:07:16.449Z,99931.50
2022-12-23T01:09:43.884Z,99928.91
2022-12-23T01:12:11.273Z,99927.19
2022-12-23T01:14:39.155Z,99916.78
2022-12-23T01:17:08.362Z,99911.97
2022-12-23T01:19:36.165Z,99905.53
2022-12-23T01:22:03.627Z,99905.72
2022-12-23T01:24:33.271Z,99900.69
2022-12-23T01:27:01.176Z,99897.25
2022-12-23T01:29:29.014Z,99908.97
2022-12-23T01:31:56.459Z,99913.47
2022-12-23T01:34:23.935Z,99910.53
2022-12-23T01:36:51.396Z,99903.44
2022-12-23T01:39:18.731Z,99901.56
2022-12-23T01:42:04.573Z,99905.53
2022-12-23T01:44:53.566Z,99905.38
2022-12-23T01:47:43.897Z,99906.41
2022-12-23T01:50:23.136Z,99914.72
2022-12-23T01:53:21.653Z,99911.75
2022-12-23T01:56:03.617Z,99908.13
2022-12-23T01:58:42.147Z,99910.91
2022-12-23T02:01:29.604Z,99905.38
2022-12-23T02:04:00.669Z,99906.41
2022-12-23T02:06:58.405Z,99903.44
2022-12-23T02:09:29.889Z,99905.53
2022-12-23T02:12:43.956Z,99903.44
2022-12-23T02:16:00.187Z,99902.59
2022-12-23T02:18:58.070Z,99910.91
2022-12-23T02:21:31.249Z,99901.56
2022-12-23T02:24:14.164Z,99899.44
2022-12-23T02:26:59.610Z,99898.78
2022-12-23T02:29:45.183Z,99898.97
2022-12-23T02:32:29.376Z,99888.75
2022-12-23T02:35:12.485Z,99887.88
2022-12-23T02:38:05.458Z,99886.00
2022-12-23T02:40:38.926Z,99880.47
2022-12-23T02:43:18.739Z,99869.38
2022-12-23T02:46:05.027Z,99871.09
2022-12-23T02:48:41.645Z,99880.25
2022-12-23T02:51:13.809Z,99869.16
2022-12-23T02:53:50.921Z,99866.41
2022-12-23T02:56:20.507Z,99869.16
2022-12-23T02:58:54.443Z,99873.00
2022-12-23T03:01:24.938Z,99868.31
2022-12-23T03:03:52.380Z,99865.34
2022-12-23T03:06:24.043Z,99870.91
2022-12-23T03:08:55.389Z,99863.47
2022-12-23T03:11:40.103Z,99850.50
2022-12-23T03:14:24.632Z,99844.06
2022-12-23T03:16:58.577Z,99843.19
2022-12-23T03:19:32.433Z,99847.72
2022-12-23T03:22:18.696Z,99845.13
2022-12-23T03:25:04.707Z,99840.44
2022-12-23T03:27:45.565Z,99840.25
2022-12-23T03:30:16.903Z,99845.13
2022-12-23T03:32:49.412Z,99849.63
2022-12-23T03:35:21.477Z,99857.03
2022-12-23T03:37:51.164Z,99854.97
2022-12-23T03:40:23.822Z,99853.25
2022-12-23T03:43:00.820Z,99848.75
2022-12-23T03:45:40.786Z,99844.97
2022-12-23T03:48:16.929Z,99850.50
2022-12-23T03:50:48.704Z,99851.34
2022-12-23T03:53:25.895Z,99837.66
2022-12-23T03:56:01.905Z,99842.19
2022-12-23T03:58:51.242Z,99846.69
2022-12-23T04:01:27.043Z,99846.69
2022-12-23T04:04:05.695Z,99850.50
2022-12-23T04:06:57.485Z,99850.50
2022-12-23T04:09:28.070Z,99852.22
2022-12-23T04:11:57.121Z,99844.97
2022-12-23T04:14:24.712Z,99849.63
2022-12-23T04:16:55.757Z,99856.88
2022-12-23T04:19:23.192Z,99848.41
2022-12-23T04:21:50.620Z,99845.81
2022-12-23T04:24:17.997Z,99844.97
2022-12-23T04:26:45.317Z,99849.63
2022-12-23T04:29:12.653Z,99853.44
2022-12-23T04:31:40.083Z,99846.84
2022-12-23T04:34:07.426Z,99842.19
2022-12-23T04:36:34.773Z,99837.66
2022-12-23T04:39:02.145Z,99841.31
2022-12-23T04:41:29.483Z,99842.38
2022-12-23T04:43:56.824Z,99845.13
2022-12-23T04:46:24.245Z,99846.69
2022-12-23T04:48:51.712Z,99840.94
2022-12-23T04:51:19.079Z,99839.22
2022-12-23T04:53:46.469Z,99847.53
2022-12-23T04:56:13.775Z,99847.53
2022-12-23T04:58:41.146Z,99853.94
2022-12-23T05:01:12.164Z,99851.34
2022-12-23T05:03:40.757Z,99851.16
2022-12-23T05:06:08.684Z,99853.06
2022-12-23T05:08:36.281Z,99858.41
2022-12-23T05:11:03.850Z,99853.38
2022-12-23T05:13:31.185Z,99853.75
2022-12-23T05:15:58.678Z,99862.25
2022-12-23T05:18:26.107Z,99866.72
2022-12-23T05:20:53.611Z,99875.59
2022-12-23T05:23:21.122Z,99873.88
2022-12-23T05:25:53.380Z,99879.56
2022-12-23T05:28:21.995Z,99876.63
2022-12-23T05:30:49.355Z,99880.47
2022-12-23T05:33:16.724Z,99876.81
2022-12-23T05:35:44.069Z,99878.53
2022-12-23T05:38:11.456Z,99869.16
2022-12-23T05:40:38.787Z,99869.16
2022-12-23T05:43:06.338Z,99864.91
2022-12-23T05:45:36.445Z,99858.47
2022-12-23T05:48:04.039Z,99863.84
2022-12-23T05:50:31.476Z,99858.66
2022-12-23T05:53:02.378Z,99858.47
2022-12-23T05:55:29.801Z,99855.88
2022-12-23T05:57:57.158Z,99855.03
2022-12-23T06:00:25.051Z,99859.53
2022-12-23T06:02:54.229Z,99865.91
2022-12-23T06:05:22.355Z,99866.28
2022-12-23T06:07:50.527Z,99868.88
2022-12-23T06:10:17.981Z,99872.31
2022-12-23T06:12:45.459Z,99873.38
2022-12-23T06:15:12.887Z,99881.50
2022-12-23T06:17:40.266Z,99879.75
2022-12-23T06:20:11.172Z,99886.00
2022-12-23T06:22:40.868Z,99892.56
2022-12-23T06:25:08.649Z,99898.13
2022-12-23T06:27:35.968Z,99900.00
2022-12-23T06:30:03.614Z,99904.50
2022-12-23T06:32:37.742Z,99914.72
2022-12-23T06:35:07.663Z,99919.88
2022-12-23T06:37:35.381Z,99924.94
2022-12-23T06:40:02.904Z,99924.75
2022-12-23T06:42:30.427Z,99924.53
2022-12-23T06:44:57.749Z,99916.44
2022-12-23T06:47:25.097Z,99921.09
2022-12-23T06:49:52.435Z,99924.94
2022-12-23T06:52:19.769Z,99924.75
2022-12-23T06:54:47.067Z,99926.09
2022-12-23T06:57:14.663Z,99916.25
2022-12-23T06:59:41.998Z,99914.34
2022-12-23T07:02:11.927Z,99912.06
2022-12-23T07:04:39.495Z,99919.00
2022-12-23T07:07:06.941Z,99916.44
2022-12-23T07:09:34.285Z,99917.28
2022-12-23T07:12:03.226Z,99919.22
2022-12-23T07:14:30.816Z,99916.06
2022-12-23T07:16:58.357Z,99917.13
2022-12-23T07:19:25.897Z,99908.25
2022-12-23T07:21:53.259Z,99911.41
2022-12-23T07:24:20.762Z,99912.25
2022-12-23T07:26:48.191Z,99907.09
2022-12-23T07:29:15.542Z,99899.84
2022-12-23T07:31:43.065Z,99904.63
2022-12-23T07:34:10.405Z,99896.84
2022-12-23T07:36:37.788Z,99892.56
2022-12-23T07:39:05.340Z,99897.06
2022-12-23T07:41:32.760Z,99888.75
2022-12-23T07:44:08.804Z,99898.13
2022-12-23T07:46:36.375Z,99893.59
2022-12-23T07:49:03.761Z,99882.34
2022-12-23T07:51:31.612Z,99887.88
2022-12-23T07:53:59.008Z,99882.53
2022-12-23T07:56:26.481Z,99874.91
2022-12-23T07:58:54.587Z,99882.34
2022-12-23T08:01:22.620Z,99887.88
2022-12-23T08:03:50.061Z,99879.56
2022-12-23T08:06:17.619Z,99884.28
2022-12-23T08:08:46.450Z,99879.75
2022-12-23T08:11:15.165Z,99887.22
2022-12-23T08:13:44.085Z,99900.19
2022-12-23T08:16:12.564Z,99904.88
2022-12-23T08:18:41.513Z,99907.66
2022-12-23T08:21:14.941Z,99915.06
2022-12-23T08:23:43.685Z,99906.75
2022-12-23T08:26:12.657Z,99910.41
2022-12-23T08:28:41.616Z,99921.47
2022-12-23T08:31:20.055Z,99922.31
2022-12-23T08:33:50.007Z,99922.53
2022-12-23T08:36:23.176Z,99921.47
2022-12-23T08:38:53.241Z,99925.31
2022-12-23T08:41:23.909Z,99928.91
2022-12-23T08:43:51.490Z,99927.88
2022-12-23T08:46:19.081Z,99927.03
2022-12-23T08:48:49.370Z,99925.31
2022-12-23T08:51:19.710Z,99917.84
2022-12-23T08:53:48.458Z,99912.13
2022-12-23T08:56:21.295Z,99902.28
2022-12-23T08:58:52.741Z,99895.03
2022-12-23T09:01:25.158Z,99900.38
2022-12-23T09:03:52.707Z,99902.28
2022-12-23T09:06:30.422Z,99899.34
2022-12-23T09:08:58.572Z,99903.31
2022-12-23T09:11:29.184Z,99892.25
2022-12-23T09:13:58.461Z,99896.91
2022-12-23T09:16:26.015Z,99902.44
2022-12-23T09:18:53.504Z,99893.47
2022-12-23T09:21:22.596Z,99888.63
2022-12-23T09:23:50.784Z,99890.72
2022-12-23T09:26:24.908Z,99889.66
2022-12-23T09:28:52.881Z,99889.66
2022-12-23T09:31:21.283Z,99887.94
2022-12-23T09:33:50.878Z,99892.63
2022-12-23T09:36:18.701Z,99887.78
2022-12-23T09:38:46.047Z,99873.25
2022-12-23T09:41:31.544Z,99880.50
2022-12-23T09:44:10.950Z,99884.13
2022-12-23T09:46:48.319Z,99872.00
2022-12-23T09:49:17.735Z,99875.81
2022-12-23T09:51:48.571Z,99878.59
2022-12-23T09:54:29.383Z,99875.81
2022-12-23T09:57:07.540Z,99869.78
2022-12-23T09:59:51.099Z,99871.16
2022-12-23T10:02:30.455Z,99868.19
2022-12-23T10:18:35.478Z,99854.16
2022-12-23T10:21:47.606Z,99855.03
2022-12-23T10:24:18.245Z,99847.97
2022-12-23T10:26:53.633Z,99845.03
2022-12-23T10:29:23.391Z,99836.00
2022-12-23T10:32:26.471Z,99830.47
2022-12-23T10:35:18.116Z,99830.69
2022-12-23T10:37:57.655Z,99833.63
2022-12-23T10:40:50.232Z,99839.00
2022-12-23T10:43:24.886Z,99825.16
2022-12-23T10:46:30.059Z,99831.03
2022-12-23T10:49:05.089Z,99827.22
2022-12-23T10:51:49.478Z,99829.13
2022-12-23T10:54:24.967Z,99832.09
2022-12-23T10:56:53.862Z,99827.59
2022-12-23T10:59:42.071Z,99822.72
2022-12-23T11:02:37.127Z,99823.78
2022-12-23T11:05:14.703Z,99822.06
2022-12-23T11:07:45.404Z,99819.47
2022-12-23T11:10:21.044Z,99816.34
2022-12-23T11:12:51.816Z,99816.34
2022-12-23T11:15:28.991Z,99799.91
2022-12-23T11:18:13.430Z,99804.41
2022-12-23T11:20:43.237Z,99796.09
2022-12-23T11:23:39.944Z,99784.84
2022-12-23T11:26:13.828Z,99787.63
2022-12-23T11:28:50.283Z,99773.97
2022-12-23T11:31:28.110Z,99775.88
2022-12-23T11:34:04.724Z,99766.88
2022-12-23T11:36:34.236Z,99755.81
2022-12-23T11:39:10.474Z,99754.97
2022-12-23T11:41:42.069Z,99751.31
2022-12-23T11:44:24.185Z,99750.97
2022-12-23T11:46:52.046Z,99753.03
2022-12-23T11:49:26.455Z,99751.31
2022-12-23T11:52:06.274Z,99747.50
2022-12-23T11:54:34.245Z,99747.31
2022-12-23T11:57:08.639Z,99738.16
2022-12-23T11:59:49.836Z,99740.75
2022-12-23T12:02:21.941Z,99749.22
2022-12-23T12:05:15.509Z,99749.03
2022-12-23T12:07:46.942Z,99742.66
2022-12-23T12:10:28.965Z,99746.09
2022-12-23T12:13:05.795Z,99742.66
2022-12-23T12:16:02.832Z,99749.03
2022-12-23T12:18:31.019Z,99741.97
2022-12-23T12:21:05.646Z,99737.97
2022-12-23T12:24:14.649Z,99733.66
2022-12-23T12:26:47.087Z,99737.31
2022-12-23T12:29:37.226Z,99735.22
2022-12-23T12:32:11.945Z,99729.38
2022-12-23T12:34:47.646Z,99728.50
2022-12-23T12:37:37.285Z,99727.47
2022-12-23T12:40:30.818Z,99729.19
2022-12-23T12:43:05.681Z,99724.53
2022-12-23T12:45:43.928Z,99722.81
2022-12-23T12:48:29.611Z,99724.53
2022-12-23T12:51:09.481Z,99724.69
2022-12-23T12:53:50.985Z,99724.03
2022-12-23T12:56:34.053Z,99730.91
2022-12-23T12:59:01.520Z,99731.28
2022-12-23T13:01:49.645Z,99731.94
2022-12-23T13:04:42.574Z,99726.41
2022-12-23T13:07:39.385Z,99730.06
2022-12-23T13:10:39.082Z,99726.63
2022-12-23T13:13:09.534Z,99731.09
2022-12-23T13:16:07.225Z,99727.47
2022-12-23T13:18:43.902Z,99734.72
2022-12-23T13:21:24.165Z,99730.06
2022-12-23T13:24:04.939Z,99728.34
2022-12-23T13:26:57.028Z,99725.38
2022-12-23T13:29:30.382Z,99733.66
2022-12-23T13:32:16.845Z,99730.06
2022-12-23T13:35:06.106Z,99734.72
2022-12-23T13:37:45.597Z,99735.75
2022-12-23T13:40:15.763Z,99739.75
2022-12-23T13:42:52.619Z,99740.47
2022-12-23T13:45:24.323Z,99735.94
2022-12-23T13:48:19.333Z,99744.94
2022-12-23T13:51:27.223Z,99741.31
2022-12-23T13:54:04.136Z,99749.44
2022-12-23T13:56:43.079Z,99741.97
2022-12-23T13:59:14.263Z,99738.34
2022-12-23T14:01:41.596Z,99743.22
2022-12-23T14:04:57.433Z,99732.34
2022-12-23T14:07:27.606Z,99740.63
2022-12-23T14:09:58.673Z,99732.50
2022-12-23T14:12:29.674Z,99738.91
2022-12-23T14:15:34.772Z,99745.28
2022-12-23T14:18:25.484Z,99744.59
2022-12-23T14:21:14.365Z,99744.47
2022-12-23T14:23:50.068Z,99745.66
2022-12-23T14:26:39.583Z,99749.47
2022-12-23T14:29:12.943Z,99757.75
2022-12-23T14:31:44.698Z,99754.78
2022-12-23T14:34:18.135Z,99760.19
2022-12-23T14:37:20.997Z,99759.47
2022-12-23T14:39:49.866Z,99767.78
2022-12-23T14:42:34.026Z,99769.69
2022-12-23T14:45:43.360Z,99769.88
2022-12-23T14:48:35.815Z,99772.66
2022-12-23T14:51:23.476Z,99762.25
2022-12-23T14:53:53.878Z,99763.31
2022-12-23T14:56:25.941Z,99763.31
2022-12-23T14:59:31.066Z,99763.47
2022-12-23T15:02:01.849Z,99767.97
2022-12-23T15:04:35.711Z,99773.72
2022-12-23T15:07:06.723Z,99767.28
2022-12-23T15:09:47.471Z,99758.13
2022-12-23T15:12:32.546Z,99766.06
2022-12-23T15:15:04.749Z,99771.78
2022-12-23T15:17:35.159Z,99760.03
2022-12-23T15:20:15.672Z,99763.47
2022-12-23T15:22:44.877Z,99766.25
2022-12-23T15:25:33.037Z,99767.28
2022-12-23T15:28:02.952Z,99765.41
2022-12-23T15:30:35.339Z,99770.25
2022-12-23T15:33:15.997Z,99770.44
2022-12-23T15:35:53.872Z,99776.81
2022-12-23T15:38:25.861Z,99781.31
2022-12-23T15:41:06.033Z,99777.13
2022-12-23T15:43:40.313Z,99773.88
2022-12-23T15:46:21.897Z,99780.97
2022-12-23T15:48:52.786Z,99777.31
2022-12-23T15:51:58.248Z,99772.66
2022-12-23T15:54:27.486Z,99770.72
2022-12-23T15:56:58.180Z,99774.53
2022-12-23T15:59:32.021Z,99770.94
2022-12-23T16:02:32.191Z,99771.59
2022-12-23T16:05:00.342Z,99767.13
2022-12-23T16:07:35.632Z,99769.19
2022-12-23T16:10:30.939Z,99760.72
2022-12-23T16:12:58.845Z,99768.63
2022-12-23T16:15:33.515Z,99757.75
2022-12-23T16:18:13.406Z,99753.47
2022-12-23T16:21:01.715Z,99748.81
2022-12-23T16:23:34.846Z,99748.97
2022-12-23T16:26:03.078Z,99748.97
2022-12-23T16:28:39.007Z,99749.81
2022-12-23T16:31:08.092Z,99750.03
2022-12-23T16:33:47.498Z,99747.75
2022-12-23T16:36:27.199Z,99746.03
2022-12-23T16:39:06.908Z,99749.47
2022-12-23T16:41:35.111Z,99746.88
2022-12-23T16:44:03.369Z,99743.94
2022-12-23T16:46:43.181Z,99744.78
2022-12-23T16:49:19.291Z,99752.22
2022-12-23T16:51:47.664Z,99747.53
2022-12-23T16:54:20.149Z,99753.94
2022-12-23T16:56:47.604Z,99750.13
2022-12-23T16:59:15.052Z,99744.47
2022-12-23T17:01:45.960Z,99748.28
2022-12-23T17:04:14.061Z,99751.72
2022-12-23T17:06:42.008Z,99747.38
2022-12-23T17:09:10.496Z,99741.69
2022-12-23T17:11:46.981Z,99744.47
2022-12-23T17:14:20.337Z,99733.53
2022-12-23T17:16:48.543Z,99732.66
2022-12-23T17:19:20.525Z,99735.41
2022-12-23T17:21:55.513Z,99729.75
2022-12-23T17:24:25.500Z,99721.59
2022-12-23T17:26:54.522Z,99719.34
2022-12-23T17:29:22.168Z,99732.34
2022-12-23T17:31:50.479Z,99738.03
2022-12-23T17:34:23.535Z,99749.78
2022-12-23T17:36:51.658Z,99748.06
2022-12-23T17:39:20.876Z,99745.50
2022-12-23T17:41:48.725Z,99750.84
2022-12-23T17:44:17.370Z,99751.88
2022-12-23T17:46:46.142Z,99750.84
2022-12-23T17:49:14.002Z,99761.91
2022-12-23T17:51:41.981Z,99766.03
2022-12-23T17:54:21.717Z,99758.78
2022-12-23T17:56:50.025Z,99758.97
2022-12-23T17:59:17.686Z,99757.72
2022-12-23T18:01:45.199Z,99744.94
2022-12-23T18:04:12.662Z,99746.66
2022-12-23T18:06:40.041Z,99751.31
2022-12-23T18:09:07.425Z,99745.63
2022-12-23T18:11:41.468Z,99741.78
2022-12-23T18:14:27.827Z,99741.63
2022-12-23T18:16:56.241Z,99739.91
2022-12-23T18:19:23.706Z,99733.50
2022-12-23T18:21:51.976Z,99727.94
2022-12-23T18:24:19.382Z,99737.13
2022-12-23T18:26:47.553Z,99740.75
2022-12-23T18:29:15.055Z,99747.16
2022-12-23T18:31:51.117Z,99751.47
2022-12-23T18:34:19.892Z,99748.88
2022-12-23T18:36:48.436Z,99749.53
2022-12-23T18:39:16.095Z,99757.84
2022-12-23T18:41:43.517Z,99753.53
2022-12-23T18:44:21.316Z,99752.47
2022-12-23T18:46:50.064Z,99748.00
2022-12-23T18:49:17.549Z,99749.72
2022-12-23T18:51:45.526Z,99748.69
2022-12-23T18:54:14.906Z,99751.47
2022-12-23T18:56:43.084Z,99747.81
2022-12-23T18:59:29.288Z,99740.56
2022-12-23T19:01:58.017Z,99741.41
2022-12-23T19:04:27.012Z,99746.75
2022-12-23T19:06:55.748Z,99734.84
2022-12-23T19:09:24.463Z,99740.38
2022-12-23T19:11:53.445Z,99737.41
2022-12-23T19:14:21.104Z,99736.91
2022-12-23T19:16:51.924Z,99741.41
2022-12-23T19:19:21.164Z,99746.75
2022-12-23T19:21:48.622Z,99749.72
2022-12-23T19:24:16.092Z,99751.47
2022-12-23T19:26:43.448Z,99739.50
2022-12-23T19:29:10.838Z,99736.75
2022-12-23T19:31:38.164Z,99743.16
2022-12-23T19:34:11.109Z,99741.22
2022-12-23T19:36:41.981Z,99735.03
2022-12-23T19:39:15.893Z,99737.78
2022-12-23T19:41:43.398Z,99732.94
2022-12-23T19:44:10.849Z,99734.84
2022-12-23T19:46:38.207Z,99734.84
2022-12-23T19:49:05.699Z,99738.63
2022-12-23T19:51:33.090Z,99739.69
2022-12-23T19:54:00.548Z,99744.16
2022-12-23T19:56:30.088Z,99743.34
2022-12-23T19:58:57.388Z,99757.00
2022-12-23T20:01:26.428Z,99752.31
2022-12-23T20:03:55.587Z,99755.25
2022-12-23T20:06:28.428Z,99757.00
2022-12-23T20:09:00.829Z,99755.25
2022-12-23T20:11:30.724Z,99759.75
2022-12-23T20:14:00.171Z,99768.06
2022-12-23T20:16:29.175Z,99771.84
2022-12-23T20:18:57.290Z,99776.38
2022-12-23T20:21:24.768Z,99779.97
2022-12-23T20:23:52.313Z,99787.44
2022-12-23T20:26:20.664Z,99789.50
2022-12-23T20:28:48.082Z,99783.81
2022-12-23T20:31:20.785Z,99776.16
2022-12-23T20:33:49.835Z,99785.69
2022-12-23T20:36:20.572Z,99789.34
2022-12-23T20:38:48.374Z,99794.88
2022-12-23T20:41:17.745Z,99794.00
2022-12-23T20:43:56.882Z,99792.09
2022-12-23T20:46:32.583Z,99779.16
2022-12-23T20:49:00.496Z,99787.25
2022-12-23T20:51:27.939Z,99783.81
2022-12-23T20:54:01.023Z,99782.09
2022-12-23T20:56:30.385Z,99784.69
2022-12-23T20:58:59.439Z,99781.53
2022-12-23T21:01:31.842Z,99782.19
2022-12-23T21:04:02.509Z,99776.16
2022-12-23T21:06:31.050Z,99781.13
2022-12-23T21:09:00.100Z,99777.53
2022-12-23T21:11:29.581Z,99773.88
2022-12-23T21:14:02.609Z,99786.00
2022-12-23T21:16:34.877Z,99784.97
2022-12-23T21:19:02.918Z,99774.94
2022-12-23T21:21:31.805Z,99778.75
2022-12-23T21:24:01.476Z,99780.47
2022-12-23T21:26:30.185Z,99769.41
2022-12-23T21:28:59.919Z,99772.00
2022-12-23T21:31:29.273Z,99774.06
2022-12-23T21:33:58.333Z,99767.28
2022-12-23T21:36:32.429Z,99765.75
2022-12-23T21:39:00.340Z,99764.75
2022-12-23T21:41:30.484Z,99762.16
2022-12-23T21:43:59.220Z,99763.19
2022-12-23T21:46:28.805Z,99758.88
2022-12-23T21:48:57.696Z,99753.19
2022-12-23T21:51:31.911Z,99754.91
2022-12-23T21:54:06.670Z,99749.34
2022-12-23T21:56:34.518Z,99744.66
2022-12-23T21:59:07.158Z,99744.88
2022-12-23T22:01:35.387Z,99744.16
2022-12-23T22:04:03.374Z,99740.38
2022-12-23T22:06:35.896Z,99736.75
2022-12-23T22:09:07.909Z,99735.03
2022-12-23T22:11:36.665Z,99730.53
2022-12-23T22:14:06.457Z,99745.22
2022-12-23T22:16:34.986Z,99745.22
2022-12-23T22:19:04.240Z,99736.91
2022-12-23T22:21:33.334Z,99735.22
2022-12-23T22:24:01.326Z,99732.25
2022-12-23T22:26:31.598Z,99736.25
2022-12-23T22:29:01.405Z,99725.00
2022-12-23T22:31:39.982Z,99729.66
2022-12-23T22:34:10.808Z,99721.75
2022-12-23T22:36:38.344Z,99723.28
2022-12-23T22:39:07.596Z,99710.47
2022-12-23T22:41:35.619Z,99707.91
2022-12-23T22:44:03.017Z,99715.00
2022-12-23T22:46:31.217Z,99708.09
2022-12-23T22:48:58.996Z,99711.53
2022-12-23T22:51:28.949Z,99715.84
2022-12-23T22:53:57.147Z,99713.44
2022-12-23T22:56:25.899Z,99717.06
2022-12-23T22:58:54.180Z,99719.66
2022-12-23T23:01:28.030Z,99710.69
2022-12-23T23:03:57.956Z,99711.72
2022-12-23T23:06:28.293Z,99710.84
2022-12-23T23:08:56.418Z,99707.25
2022-12-23T23:11:25.266Z,99712.78
2022-12-23T23:13:53.167Z,99702.72
2022-12-23T23:16:21.399Z,99702.72
2022-12-23T23:18:49.090Z,99699.78
2022-12-23T23:21:17.034Z,99701.88
2022-12-23T23:23:44.543Z,99696.19
2022-12-23T23:26:12.536Z,99687.00
2022-12-23T23:28:40.715Z,99701.88
2022-12-23T23:31:40.561Z,99688.06
2022-12-23T23:33:57.884Z,99684.22
2022-12-23T23:36:25.827Z,99677.47
2022-12-23T23:38:53.268Z,99676.91
2022-12-23T23:41:23.508Z,99672.69
2022-12-23T23:43:52.268Z,99672.34
2022-12-23T23:46:19.871Z,99667.63
2022-12-23T23:48:47.484Z,99657.44
2022-12-23T23:51:15.042Z,99653.78
2022-12-23T23:53:42.392Z,99655.34
2022-12-23T23:56:10.479Z,99655.16
2022-12-23T23:58:38.030Z,99655.81
